Time;durP1;ratioP1;P1;durP2;ratioP2;P2;SDS_P1;SDS_P2;PMS_P1;PMS_P2;Temp;Humidity;BMP_temperature;BMP_pressure;BME280_temperature;BME280_humidity;BME280_pressure;Samples;Min_cycle;Max_cycle;Signal;HPM_P1;HPM_P2
2023/03/30 00:03:04;;;;;;;4.20;2.80;;;;;;;;;;12903731;23;20020;-78
2023/03/30 00:08:04;;;;;;;5.82;3.45;;;;;;;;;;12899756;22;20019;-78
2023/03/30 00:13:06;;;;;;;4.03;3.35;;;;;;;;;;12904468;23;20087;-79
2023/03/30 00:18:07;;;;;;;3.38;3.08;;;;;;;;;;12904353;23;20027;-78
2023/03/30 00:23:08;;;;;;;5.13;2.90;;;;;;;;;;12905931;23;20008;-77
2023/03/30 00:28:08;;;;;;;4.30;3.13;;;;;;;;;;12906418;23;20356;-79
2023/03/30 00:33:09;;;;;;;4.72;2.63;;;;;;;;;;12853225;23;20251;-78
2023/03/30 00:38:10;;;;;;;3.42;2.42;;;;;;;;;;12877603;23;20232;-79
2023/03/30 00:43:10;;;;;;;4.03;2.38;;;;;;;;;;12878386;23;20801;-78
2023/03/30 00:48:14;;;;;;;3.45;2.47;;;;;;;;;;12905019;22;20092;-78
2023/03/30 00:53:17;;;;;;;4.40;2.85;;;;;;;;;;12879236;23;20027;-79
2023/03/30 00:58:19;;;;;;;4.68;2.50;;;;;;;;;;12878986;23;20016;-79
2023/03/30 01:03:22;;;;;;;3.80;2.63;;;;;;;;;;12907268;23;20008;-78
2023/03/30 01:08:25;;;;;;;4.82;2.85;;;;;;;;;;12907692;22;20015;-79
2023/03/30 01:13:32;;;;;;;5.00;2.50;;;;;;;;;;12883239;23;20697;-77
2023/03/30 01:18:43;;;;;;;4.50;2.88;;;;;;;;;;12879049;23;20433;-79
2023/03/30 01:23:54;;;;;;;4.38;2.80;;;;;;;;;;12903171;22;20027;-78
2023/03/30 01:28:59;;;;;;;4.15;2.60;;;;;;;;;;12968490;22;20040;-81
2023/03/30 01:34:06;;;;;;;5.65;2.35;;;;;;;;;;12919918;23;20079;-78
2023/03/30 01:39:08;;;;;;;3.55;2.60;;;;;;;;;;12907078;23;20030;-78
2023/03/30 01:44:12;;;;;;;3.53;2.60;;;;;;;;;;12902250;23;20095;-76
2023/03/30 01:49:19;;;;;;;5.45;2.70;;;;;;;;;;12902046;23;20016;-78
2023/03/30 01:54:24;;;;;;;3.60;2.40;;;;;;;;;;12902183;23;20008;-76
2023/03/30 01:59:27;;;;;;;5.43;2.42;;;;;;;;;;12874782;23;20012;-77
2023/03/30 02:04:30;;;;;;;4.85;3.10;;;;;;;;;;12878910;23;20023;-77
2023/03/30 02:09:32;;;;;;;4.07;2.53;;;;;;;;;;12898194;23;20016;-78
2023/03/30 02:14:35;;;;;;;5.38;2.55;;;;;;;;;;12943912;23;20015;-77
2023/03/30 02:19:36;;;;;;;3.10;2.55;;;;;;;;;;12921943;22;20091;-78
2023/03/30 02:24:37;;;;;;;4.57;2.38;;;;;;;;;;12880893;23;20835;-78
2023/03/30 02:29:40;;;;;;;3.90;2.50;;;;;;;;;;12907961;23;20019;-79
2023/03/30 02:34:42;;;;;;;;;;;;;;;;;;12878559;23;20078;-77
2023/03/30 02:39:48;;;;;;;6.28;3.45;;;;;;;;;;12905493;22;19988;-78
2023/03/30 02:45:17;;;;;;;8.15;4.07;;;;;;;;;;12907140;22;20019;-78
2023/03/30 02:50:38;;;;;;;4.57;2.80;;;;;;;;;;12905252;22;20039;-77
2023/03/30 02:56:02;;;;;;;7.03;2.88;;;;;;;;;;12853695;23;20019;-75
2023/03/30 03:01:52;;;;;;;3.92;2.90;;;;;;;;;;12891474;23;20020;-77
2023/03/30 03:06:53;;;;;;;5.72;2.55;;;;;;;;;;12905630;22;20016;-77
2023/03/30 03:11:54;;;;;;;4.30;2.65;;;;;;;;;;12881928;23;20068;-76
2023/03/30 03:16:59;;;;;;;5.50;2.65;;;;;;;;;;12893947;23;20016;-77
2023/03/30 03:22:06;;;;;;;5.60;3.15;;;;;;;;;;12920677;23;20019;-77
2023/03/30 03:27:10;;;;;;;5.05;3.00;;;;;;;;;;12898095;23;20119;-76
2023/03/30 03:32:29;;;;;;;3.80;2.70;;;;;;;;;;12936403;23;20000;-78
2023/03/30 03:37:30;;;;;;;6.63;3.30;;;;;;;;;;12940218;22;19996;-79
2023/03/30 03:42:31;;;;;;;6.03;3.03;;;;;;;;;;12927093;22;20784;-76
2023/03/30 03:47:42;;;;;;;5.53;3.00;;;;;;;;;;12938042;22;20024;-77
2023/03/30 03:52:43;;;;;;;5.38;2.80;;;;;;;;;;12937393;22;20016;-79
2023/03/30 03:57:43;;;;;;;6.03;3.72;;;;;;;;;;12969510;22;20008;-77
2023/03/30 04:02:44;;;;;;;7.40;2.72;;;;;;;;;;12942647;22;20016;-78
2023/03/30 04:07:46;;;;;;;5.00;3.55;;;;;;;;;;12937012;22;20023;-78
2023/03/30 04:12:47;;;;;;;6.28;2.50;;;;;;;;;;12843960;23;20019;-78
2023/03/30 04:18:14;;;;;;;5.03;2.63;;;;;;;;;;12898509;23;20022;-77
2023/03/30 04:23:44;;;;;;;7.80;3.30;;;;;;;;;;12877953;23;20064;-78
2023/03/30 04:29:05;;;;;;;7.22;2.90;;;;;;;;;;12904402;23;20024;-77
2023/03/30 04:34:20;;;;;;;5.25;3.35;;;;;;;;;;12877417;23;20460;-77
2023/03/30 04:39:59;;;;;;;6.22;2.95;;;;;;;;;;12710079;23;20080;-77
2023/03/30 04:45:19;;;;;;;10.23;4.93;;;;;;;;;;12849101;23;20388;-78
2023/03/30 04:50:38;;;;;;;7.38;4.45;;;;;;;;;;12904908;22;20605;-79
2023/03/30 04:55:57;;;;;;;7.93;4.13;;;;;;;;;;12903578;22;20020;-79
2023/03/30 05:01:27;;;;;;;9.50;4.05;;;;;;;;;;12874988;23;20112;-79
2023/03/30 05:06:56;;;;;;;12.18;4.35;;;;;;;;;;12873827;22;20147;-77
2023/03/30 05:12:15;;;;;;;9.20;4.03;;;;;;;;;;12898756;22;20345;-76
2023/03/30 05:17:45;;;;;;;11.45;4.30;;;;;;;;;;12882972;23;20065;-78
2023/03/30 05:23:07;;;;;;;11.48;4.15;;;;;;;;;;12896119;23;20051;-76
2023/03/30 05:28:43;;;;;;;13.15;3.85;;;;;;;;;;12718576;23;20035;-79
2023/03/30 05:34:02;;;;;;;9.07;4.22;;;;;;;;;;12902632;23;20380;-77
2023/03/30 05:39:23;;;;;;;9.48;4.13;;;;;;;;;;12904103;22;20099;-80
2023/03/30 05:44:50;;;;;;;19.77;9.00;;;;;;;;;;12879041;23;20461;-78
2023/03/30 05:50:25;;;;;;;6.85;4.90;;;;;;;;;;12906393;23;20547;-78
2023/03/30 05:55:28;;;;;;;;;;;;;;;;;;12905499;23;20016;-76
2023/03/30 06:01:00;;;;;;;8.60;3.47;;;;;;;;;;12880671;23;19922;-79
2023/03/30 06:06:08;;;;;;;12.50;4.07;;;;;;;;;;12878464;22;20024;-79
2023/03/30 06:11:10;;;;;;;7.70;3.83;;;;;;;;;;12879234;23;20420;-78
2023/03/30 06:16:21;;;;;;;8.50;4.50;;;;;;;;;;12881395;23;20016;-79
2023/03/30 06:21:22;;;;;;;13.15;5.00;;;;;;;;;;12854409;23;20013;-79
2023/03/30 06:26:36;;;;;;;11.13;4.95;;;;;;;;;;12881018;22;20023;-78
2023/03/30 06:31:37;;;;;;;11.55;4.78;;;;;;;;;;12884827;23;20108;-77
2023/03/30 06:36:57;;;;;;;11.40;4.35;;;;;;;;;;12867898;22;20022;-79
2023/03/30 06:41:58;;;;;;;10.00;4.28;;;;;;;;;;12879147;23;20078;-78
2023/03/30 06:47:18;;;;;;;12.27;5.70;;;;;;;;;;12904657;23;20086;-77
2023/03/30 06:52:20;;;;;;;12.88;4.80;;;;;;;;;;12877937;23;20342;-78
2023/03/30 06:57:21;;;;;;;12.70;4.82;;;;;;;;;;12878153;23;20103;-78
2023/03/30 07:02:22;;;;;;;13.68;5.47;;;;;;;;;;12906255;23;20019;-77
2023/03/30 07:07:31;;;;;;;10.77;5.07;;;;;;;;;;12912136;22;20119;-78
2023/03/30 07:12:31;;;;;;;13.70;5.15;;;;;;;;;;12878262;23;20083;-78
2023/03/30 07:17:33;;;;;;;10.27;4.60;;;;;;;;;;12877275;23;20070;-78
2023/03/30 07:22:34;;;;;;;12.60;5.60;;;;;;;;;;12903784;22;20437;-77
2023/03/30 07:27:35;;;;;;;19.17;4.68;;;;;;;;;;12877494;23;20016;-79
2023/03/30 07:32:36;;;;;;;12.68;5.32;;;;;;;;;;12849279;23;20054;-78
2023/03/30 07:37:41;;;;;;;14.00;5.63;;;;;;;;;;12874788;22;20020;-79
2023/03/30 07:42:42;;;;;;;16.17;5.78;;;;;;;;;;12876209;23;20016;-78
2023/03/30 07:47:43;;;;;;;16.48;5.43;;;;;;;;;;12876131;23;20023;-78
2023/03/30 07:52:44;;;;;;;12.43;5.90;;;;;;;;;;12879215;22;20016;-79
2023/03/30 07:57:45;;;;;;;12.10;5.85;;;;;;;;;;12878711;23;20012;-78
2023/03/30 08:02:46;;;;;;;11.52;5.80;;;;;;;;;;12905913;23;20491;-76
2023/03/30 08:07:50;;;;;;;9.27;5.60;;;;;;;;;;12877039;22;20043;-77
2023/03/30 08:12:57;;;;;;;14.80;5.97;;;;;;;;;;12878387;23;20012;-77
2023/03/30 08:18:05;;;;;;;17.40;6.35;;;;;;;;;;12877162;23;20027;-77
2023/03/30 08:23:06;;;;;;;13.23;5.53;;;;;;;;;;12905952;23;20349;-76
2023/03/30 08:28:07;;;;;;;14.35;6.47;;;;;;;;;;12904428;23;20026;-78
2023/03/30 08:33:09;;;;;;;16.83;7.63;;;;;;;;;;12877188;23;20019;-78
2023/03/30 08:38:09;;;;;;;17.10;8.03;;;;;;;;;;12900932;23;20346;-76
2023/03/30 08:43:18;;;;;;;16.30;7.93;;;;;;;;;;12877602;23;20262;-78
2023/03/30 08:48:20;;;;;;;17.35;7.18;;;;;;;;;;12897899;23;20024;-78
2023/03/30 08:53:21;;;;;;;15.05;6.82;;;;;;;;;;12908007;23;20095;-78
2023/03/30 08:58:40;;;;;;;17.15;7.20;;;;;;;;;;12906037;23;20445;-78
2023/03/30 09:03:58;;;;;;;11.88;5.30;;;;;;;;;;12875137;23;20471;-78
2023/03/30 09:08:59;;;;;;;16.38;7.50;;;;;;;;;;12901832;22;20022;-78
2023/03/30 09:14:04;;;;;;;19.92;8.98;;;;;;;;;;12851309;23;20051;-80
2023/03/30 09:19:08;;;;;;;19.98;9.52;;;;;;;;;;12876642;23;20016;-78
2023/03/30 09:24:11;;;;;;;12.65;8.15;;;;;;;;;;12879013;22;20345;-78
2023/03/30 09:29:39;;;;;;;19.05;7.55;;;;;;;;;;12888004;22;20008;-79
2023/03/30 09:34:56;;;;;;;15.50;6.25;;;;;;;;;;12900112;23;20008;-79
2023/03/30 09:39:58;;;;;;;14.55;7.50;;;;;;;;;;12850573;22;20110;-79
2023/03/30 09:45:13;;;;;;;16.33;6.75;;;;;;;;;;12901814;23;20028;-79
2023/03/30 09:50:21;;;;;;;18.58;7.45;;;;;;;;;;12901223;22;20131;-78
2023/03/30 09:55:33;;;;;;;17.70;7.13;;;;;;;;;;12901379;23;20016;-76
2023/03/30 10:00:33;;;;;;;18.70;8.80;;;;;;;;;;12902393;23;20022;-78
2023/03/30 10:05:35;;;;;;;13.98;6.90;;;;;;;;;;12894810;22;20035;-77
2023/03/30 10:10:39;;;;;;;20.73;7.93;;;;;;;;;;12905348;23;20012;-79
2023/03/30 10:15:43;;;;;;;14.85;7.00;;;;;;;;;;12921240;22;20083;-78
2023/03/30 10:20:50;;;;;;;14.57;6.90;;;;;;;;;;12906885;23;20122;-77
2023/03/30 10:26:00;;;;;;;15.27;6.75;;;;;;;;;;12893844;23;20024;-78
2023/03/30 10:31:04;;;;;;;15.05;7.18;;;;;;;;;;12907017;23;20023;-77
2023/03/30 10:36:05;;;;;;;15.88;7.20;;;;;;;;;;12884314;23;20107;-77
2023/03/30 10:41:19;;;;;;;16.40;6.75;;;;;;;;;;12905464;23;20496;-78
2023/03/30 10:46:22;;;;;;;18.50;7.95;;;;;;;;;;12909748;23;20024;-77
2023/03/30 10:51:23;;;;;;;13.95;6.53;;;;;;;;;;12920588;22;20091;-79
2023/03/30 10:56:30;;;;;;;14.40;7.73;;;;;;;;;;12934266;23;20008;-78
2023/03/30 11:02:07;;;;;;;16.67;7.53;;;;;;;;;;12941029;23;20011;-76
2023/03/30 11:07:12;;;;;;;16.20;7.78;;;;;;;;;;12802964;23;20386;-77
2023/03/30 11:12:15;;;;;;;17.38;6.90;;;;;;;;;;12910810;23;20056;-77
2023/03/30 11:17:24;;;;;;;9.53;4.97;;;;;;;;;;12913670;23;20019;-77
2023/03/30 11:22:31;;;;;;;8.93;4.88;;;;;;;;;;12890314;23;20068;-77
2023/03/30 11:27:38;;;;;;;11.77;4.47;;;;;;;;;;12914178;23;20028;-77
2023/03/30 11:32:49;;;;;;;8.63;3.88;;;;;;;;;;12944185;23;20024;-76
2023/03/30 11:37:53;;;;;;;5.20;3.47;;;;;;;;;;12952964;23;20000;-77
2023/03/30 11:42:53;;;;;;;5.10;3.45;;;;;;;;;;12954377;23;20027;-78
2023/03/30 11:48:04;;;;;;;5.10;3.25;;;;;;;;;;12920892;23;20035;-77
2023/03/30 11:53:12;;;;;;;4.90;3.28;;;;;;;;;;12955912;23;20008;-79
2023/03/30 11:58:23;;;;;;;4.65;3.00;;;;;;;;;;12960163;23;20008;-78
2023/03/30 12:03:36;;;;;;;3.63;2.80;;;;;;;;;;12960653;23;20022;-78
2023/03/30 12:08:37;;;;;;;5.75;3.08;;;;;;;;;;12879341;22;20020;-77
2023/03/30 12:13:38;;;;;;;3.58;2.90;;;;;;;;;;12903595;23;20008;-78
2023/03/30 12:18:48;;;;;;;6.07;3.58;;;;;;;;;;12908918;22;20620;-79
2023/03/30 12:23:59;;;;;;;8.10;3.20;;;;;;;;;;12925290;22;20024;-81
2023/03/30 12:29:03;;;;;;;5.20;3.03;;;;;;;;;;12922031;23;20643;-81
2023/03/30 12:34:06;;;;;;;4.03;2.63;;;;;;;;;;12858434;23;20042;-81
2023/03/30 12:39:15;;;;;;;4.22;2.72;;;;;;;;;;12906984;23;20016;-79
2023/03/30 12:44:25;;;;;;;5.35;2.67;;;;;;;;;;12881520;23;20057;-79
2023/03/30 12:49:28;;;;;;;3.70;2.42;;;;;;;;;;12914834;23;20012;-79
2023/03/30 12:54:41;;;;;;;5.25;2.58;;;;;;;;;;12912225;23;20008;-79
2023/03/30 12:59:55;;;;;;;3.93;2.40;;;;;;;;;;12905699;23;20012;-77
2023/03/30 13:04:56;;;;;;;6.30;2.90;;;;;;;;;;12904091;23;20073;-76
2023/03/30 13:10:01;;;;;;;4.93;2.20;;;;;;;;;;12875059;23;20529;-79
2023/03/30 13:15:05;;;;;;;4.10;2.40;;;;;;;;;;12877359;23;20099;-81
2023/03/30 13:20:13;;;;;;;4.20;2.78;;;;;;;;;;12877281;23;20532;-76
2023/03/30 13:25:19;;;;;;;4.72;2.40;;;;;;;;;;12902817;23;20747;-77
2023/03/30 13:30:19;;;;;;;5.90;2.35;;;;;;;;;;12874676;23;20019;-78
2023/03/30 13:35:23;;;;;;;4.80;2.85;;;;;;;;;;12873256;23;20021;-80
2023/03/30 13:40:25;;;;;;;3.83;2.45;;;;;;;;;;12900802;23;20005;-79
2023/03/30 13:45:36;;;;;;;4.55;2.50;;;;;;;;;;12900996;23;20022;-79
2023/03/30 13:50:38;;;;;;;5.70;2.80;;;;;;;;;;12903079;22;20039;-79
2023/03/30 13:55:41;;;;;;;5.03;2.53;;;;;;;;;;12881025;22;20012;-78
2023/03/30 14:00:43;;;;;;;6.00;2.63;;;;;;;;;;12909522;23;20016;-78
2023/03/30 14:05:43;;;;;;;;;;;;;;;;;;12910675;22;20043;-79
2023/03/30 14:10:48;;;;;;;3.60;2.42;;;;;;;;;;12883565;23;20395;-79
2023/03/30 14:15:49;;;;;;;3.72;2.50;;;;;;;;;;12884175;23;20039;-79
2023/03/30 14:21:00;;;;;;;5.25;3.10;;;;;;;;;;12876910;23;20031;-80
2023/03/30 14:26:04;;;;;;;4.68;2.47;;;;;;;;;;12888813;22;20020;-80
2023/03/30 14:31:11;;;;;;;4.93;2.30;;;;;;;;;;12942350;23;20369;-80
2023/03/30 14:36:14;;;;;;;5.70;2.50;;;;;;;;;;12899791;23;20039;-79
2023/03/30 14:41:26;;;;;;;4.70;2.20;;;;;;;;;;12895790;22;20019;-83
2023/03/30 14:46:30;;;;;;;4.60;2.50;;;;;;;;;;12874393;23;20074;-82
2023/03/30 14:51:40;;;;;;;3.08;2.13;;;;;;;;;;12893755;22;20012;-79
2023/03/30 14:56:42;;;;;;;3.70;2.45;;;;;;;;;;12924749;23;20012;-80
2023/03/30 15:01:42;;;;;;;3.93;2.30;;;;;;;;;;12920896;23;20019;-79
2023/03/30 15:06:46;;;;;;;6.43;2.63;;;;;;;;;;12916062;22;20030;-79
2023/03/30 15:11:54;;;;;;;4.78;2.63;;;;;;;;;;12885208;23;20016;-81
2023/03/30 15:16:55;;;;;;;5.20;2.80;;;;;;;;;;12892073;22;20027;-82
2023/03/30 15:21:57;;;;;;;4.32;2.40;;;;;;;;;;12912082;22;20015;-79
2023/03/30 15:26:59;;;;;;;5.03;2.50;;;;;;;;;;12913332;23;20480;-78
2023/03/30 15:32:04;;;;;;;5.68;2.53;;;;;;;;;;12880313;22;20016;-78
2023/03/30 15:37:18;;;;;;;4.85;2.20;;;;;;;;;;12863531;23;20000;-76
2023/03/30 15:42:29;;;;;;;3.67;2.40;;;;;;;;;;12917023;22;20018;-78
2023/03/30 15:47:30;;;;;;;3.65;1.67;;;;;;;;;;12927621;23;20024;-78
2023/03/30 15:52:35;;;;;;;2.58;1.65;;;;;;;;;;12903782;23;20024;-78
2023/03/30 15:57:39;;;;;;;3.67;1.90;;;;;;;;;;12923295;23;20023;-77
2023/03/30 16:02:45;;;;;;;2.78;1.95;;;;;;;;;;12884736;23;20015;-77
2023/03/30 16:07:47;;;;;;;3.67;1.60;;;;;;;;;;12921610;22;20012;-79
2023/03/30 16:12:48;;;;;;;2.73;1.57;;;;;;;;;;12869204;23;20321;-78
2023/03/30 16:17:48;;;;;;;2.70;1.40;;;;;;;;;;12910730;22;20008;-78
2023/03/30 16:22:49;;;;;;;5.18;1.60;;;;;;;;;;12909812;23;20126;-78
2023/03/30 16:27:49;;;;;;;4.10;1.55;;;;;;;;;;12889132;23;20106;-80
2023/03/30 16:32:50;;;;;;;5.67;1.50;;;;;;;;;;12888010;23;20043;-78
2023/03/30 16:37:50;;;;;;;6.13;1.50;;;;;;;;;;12909423;22;20039;-77
2023/03/30 16:42:51;;;;;;;4.13;1.60;;;;;;;;;;12908151;22;20019;-76
2023/03/30 16:47:51;;;;;;;2.53;1.77;;;;;;;;;;12875681;23;20275;-76
2023/03/30 16:52:51;;;;;;;3.67;1.52;;;;;;;;;;12875808;23;20247;-77
2023/03/30 16:57:53;;;;;;;4.50;1.80;;;;;;;;;;12907666;23;20081;-77
2023/03/30 17:02:53;;;;;;;5.55;3.38;;;;;;;;;;12916678;23;20035;-80
2023/03/30 17:07:54;;;;;;;2.47;1.43;;;;;;;;;;12908596;22;20024;-76
2023/03/30 17:12:54;;;;;;;5.15;1.42;;;;;;;;;;12902682;23;20333;-79
2023/03/30 17:17:56;;;;;;;6.65;1.90;;;;;;;;;;12878153;23;20023;-78
2023/03/30 17:22:56;;;;;;;2.95;1.33;;;;;;;;;;12901181;23;20016;-78
2023/03/30 17:27:57;;;;;;;3.47;1.80;;;;;;;;;;12899740;23;20024;-78
2023/03/30 17:32:59;;;;;;;3.03;1.60;;;;;;;;;;12881077;23;20062;-75
2023/03/30 17:38:00;;;;;;;4.43;1.65;;;;;;;;;;12902816;23;20019;-78
2023/03/30 17:43:00;;;;;;;5.28;1.80;;;;;;;;;;12902147;23;20039;-76
2023/03/30 17:48:01;;;;;;;3.10;1.40;;;;;;;;;;12850313;23;20081;-77
2023/03/30 17:53:02;;;;;;;3.83;2.05;;;;;;;;;;12902433;23;20083;-76
2023/03/30 17:58:02;;;;;;;2.58;1.40;;;;;;;;;;12904111;23;20698;-79
2023/03/30 18:03:03;;;;;;;2.97;1.63;;;;;;;;;;12901739;23;20087;-76
2023/03/30 18:08:04;;;;;;;3.83;1.90;;;;;;;;;;12854256;23;20275;-78
2023/03/30 18:13:05;;;;;;;2.53;2.05;;;;;;;;;;12884804;23;20012;-81
2023/03/30 18:18:06;;;;;;;2.17;1.70;;;;;;;;;;12929072;23;20016;-79
2023/03/30 18:23:06;;;;;;;3.97;2.75;;;;;;;;;;12887368;22;20042;-76
2023/03/30 18:28:18;;;;;;;2.63;1.83;;;;;;;;;;12952378;23;20020;-78
2023/03/30 18:33:20;;;;;;;3.93;2.03;;;;;;;;;;12919897;23;20020;-79
2023/03/30 18:38:21;;;;;;;4.03;2.70;;;;;;;;;;12959932;22;20019;-78
2023/03/30 18:43:22;;;;;;;4.05;2.90;;;;;;;;;;12937757;22;20262;-78
2023/03/30 18:48:22;;;;;;;5.57;3.88;;;;;;;;;;12971783;22;20008;-78
2023/03/30 18:53:24;;;;;;;5.05;4.00;;;;;;;;;;12920524;23;20004;-78
2023/03/30 18:58:26;;;;;;;6.05;4.40;;;;;;;;;;12946489;22;20058;-77
2023/03/30 19:03:28;;;;;;;6.57;4.90;;;;;;;;;;12919965;23;20008;-78
2023/03/30 19:08:29;;;;;;;8.23;5.50;;;;;;;;;;12901965;22;20334;-77
2023/03/30 19:13:30;;;;;;;7.78;6.38;;;;;;;;;;12878518;23;20016;-78
2023/03/30 19:18:32;;;;;;;11.07;6.50;;;;;;;;;;12913687;22;20050;-79
2023/03/30 19:23:32;;;;;;;9.45;5.90;;;;;;;;;;12853808;22;20255;-79
2023/03/30 19:28:32;;;;;;;6.87;4.97;;;;;;;;;;12879037;23;20241;-77
2023/03/30 19:33:33;;;;;;;7.45;5.07;;;;;;;;;;12876253;22;20254;-79
2023/03/30 19:38:34;;;;;;;8.68;5.00;;;;;;;;;;12900555;22;20004;-79
2023/03/30 19:43:36;;;;;;;11.27;5.70;;;;;;;;;;12883390;23;20039;-79
2023/03/30 19:48:37;;;;;;;9.98;5.95;;;;;;;;;;12938854;23;20064;-79
2023/03/30 19:53:38;;;;;;;6.93;4.95;;;;;;;;;;12950528;23;20042;-78
2023/03/30 19:58:39;;;;;;;8.77;5.82;;;;;;;;;;12920595;23;20337;-79
2023/03/30 20:03:52;;;;;;;10.45;6.75;;;;;;;;;;12898875;23;20036;-80
2023/03/30 20:08:53;;;;;;;10.65;6.93;;;;;;;;;;12899776;23;20031;-80
2023/03/30 20:13:54;;;;;;;11.40;5.28;;;;;;;;;;12917131;23;20027;-80
2023/03/30 20:18:56;;;;;;;8.43;5.10;;;;;;;;;;12884009;23;20414;-80
2023/03/30 20:23:58;;;;;;;;;;;;;;;;;;12902169;23;20520;-79
2023/03/30 20:28:59;;;;;;;9.38;5.57;;;;;;;;;;12909244;23;19931;-79
2023/03/30 20:34:00;;;;;;;8.10;5.93;;;;;;;;;;12855808;23;20028;-79
2023/03/30 20:39:00;;;;;;;12.85;6.50;;;;;;;;;;12897586;23;20020;-80
2023/03/30 20:44:02;;;;;;;10.23;6.45;;;;;;;;;;12890270;22;20428;-79
2023/03/30 20:49:03;;;;;;;7.53;4.60;;;;;;;;;;12907230;22;20018;-81
2023/03/30 20:54:05;;;;;;;9.30;4.18;;;;;;;;;;12878524;22;20043;-80
2023/03/30 20:59:06;;;;;;;5.75;3.33;;;;;;;;;;12916576;23;20012;-80
2023/03/30 21:04:08;;;;;;;5.35;3.05;;;;;;;;;;12873334;23;20036;-78
2023/03/30 21:09:08;;;;;;;4.45;3.30;;;;;;;;;;12884860;22;20014;-79
2023/03/30 21:14:10;;;;;;;8.23;3.47;;;;;;;;;;12909509;23;20296;-80
2023/03/30 21:19:10;;;;;;;5.18;1.95;;;;;;;;;;12858083;22;20012;-79
2023/03/30 21:24:11;;;;;;;4.45;1.90;;;;;;;;;;12897257;22;20020;-80
2023/03/30 21:29:12;;;;;;;4.85;1.92;;;;;;;;;;12853310;23;20016;-81
2023/03/30 21:34:13;;;;;;;4.80;2.03;;;;;;;;;;12849828;23;20087;-79
2023/03/30 21:39:13;;;;;;;4.63;1.85;;;;;;;;;;12874583;23;20115;-79
2023/03/30 21:44:14;;;;;;;5.00;2.43;;;;;;;;;;12897046;23;20024;-79
2023/03/30 21:49:14;;;;;;;8.13;2.63;;;;;;;;;;12911182;23;20251;-79
2023/03/30 21:54:18;;;;;;;4.00;2.42;;;;;;;;;;12864650;23;20008;-78
2023/03/30 21:59:18;;;;;;;;;;;;;;;;;;12897765;23;20036;-79
2023/03/30 22:04:18;;;;;;;7.00;4.55;;;;;;;;;;12910355;23;19916;-79
2023/03/30 22:09:19;;;;;;;5.87;3.20;;;;;;;;;;12903540;22;20015;-79
2023/03/30 22:14:20;;;;;;;4.85;3.05;;;;;;;;;;12901805;23;20024;-79
2023/03/30 22:19:23;;;;;;;6.50;3.13;;;;;;;;;;12879800;23;20024;-80
2023/03/30 22:24:24;;;;;;;5.93;3.63;;;;;;;;;;12856169;23;20027;-81
2023/03/30 22:29:26;;;;;;;7.18;2.83;;;;;;;;;;12891357;23;20043;-82
2023/03/30 22:34:30;;;;;;;4.83;2.33;;;;;;;;;;12914704;23;20018;-80
2023/03/30 22:39:37;;;;;;;5.03;2.70;;;;;;;;;;12882546;23;20020;-82
2023/03/30 22:44:59;;;;;;;4.82;2.50;;;;;;;;;;12865775;23;20127;-82
2023/03/30 22:49:59;;;;;;;5.43;2.45;;;;;;;;;;12913839;22;20225;-79
2023/03/30 22:55:02;;;;;;;5.40;2.40;;;;;;;;;;12887791;22;20004;-80
2023/03/30 23:00:09;;;;;;;5.38;2.42;;;;;;;;;;12895525;23;20112;-81
2023/03/30 23:05:12;;;;;;;4.38;2.45;;;;;;;;;;12921813;22;20023;-79
2023/03/30 23:10:14;;;;;;;5.07;2.60;;;;;;;;;;12918066;22;20053;-79
2023/03/30 23:15:17;;;;;;;3.35;2.50;;;;;;;;;;12976182;22;20023;-80
2023/03/30 23:20:18;;;;;;;;;;;;;;;;;;12924515;22;20275;-80
2023/03/30 23:25:19;;;;;;;5.82;3.05;;;;;;;;;;12907466;22;19942;-79
2023/03/30 23:30:20;;;;;;;5.80;2.50;;;;;;;;;;12878916;23;20019;-80
2023/03/30 23:35:21;;;;;;;9.15;2.85;;;;;;;;;;12910653;22;20642;-80
2023/03/30 23:40:23;;;;;;;9.40;3.47;;;;;;;;;;12885514;23;20016;-82
2023/03/30 23:45:23;;;;;;;6.07;2.80;;;;;;;;;;12914222;23;20023;-81
2023/03/30 23:50:25;;;;;;;5.40;3.20;;;;;;;;;;12883166;23;20512;-80
2023/03/30 23:55:27;;;;;;;7.07;3.00;;;;;;;;;;12870977;23;20019;-76
